createdAt,value
2022-08-28T00:01:09.268Z,1.93
2022-08-28T00:03:37.898Z,2.20
2022-08-28T00:06:06.253Z,1.90
2022-08-28T00:08:33.793Z,2.00
2022-08-28T00:11:02.665Z,2.10
2022-08-28T00:13:30.188Z,2.00
2022-08-28T00:16:00.879Z,1.90
2022-08-28T00:18:31.168Z,1.90
2022-08-28T00:21:00.127Z,2.03
2022-08-28T00:23:35.229Z,2.00
2022-08-28T00:26:32.022Z,2.23
2022-08-28T00:28:58.596Z,2.10
2022-08-28T00:31:26.218Z,2.10
2022-08-28T00:33:53.780Z,2.10
2022-08-28T00:36:21.256Z,2.30
2022-08-28T00:38:48.956Z,2.00
2022-08-28T00:41:18.453Z,2.17
2022-08-28T00:44:05.733Z,2.30
2022-08-28T00:46:33.330Z,2.13
2022-08-28T00:49:00.852Z,1.93
2022-08-28T00:51:46.478Z,1.93
2022-08-28T00:54:14.191Z,2.10
2022-08-28T00:56:43.131Z,1.97
2022-08-28T00:59:15.427Z,2.20
2022-08-28T01:01:44.158Z,2.20
2022-08-28T01:04:16.767Z,2.23
2022-08-28T01:06:46.158Z,2.00
2022-08-28T01:09:15.035Z,1.93
2022-08-28T01:11:52.345Z,2.00
2022-08-28T01:14:23.034Z,2.07
2022-08-28T01:16:55.458Z,2.30
2022-08-28T01:19:31.159Z,1.73
2022-08-28T01:22:07.226Z,1.90
2022-08-28T01:24:39.050Z,2.27
2022-08-28T01:27:06.602Z,2.10
2022-08-28T01:29:34.355Z,2.20
2022-08-28T01:32:01.879Z,1.97
2022-08-28T01:34:30.991Z,2.17
2022-08-28T01:36:59.003Z,1.73
2022-08-28T01:39:31.106Z,2.07
2022-08-28T01:42:00.611Z,2.00
2022-08-28T01:44:28.936Z,2.03
2022-08-28T01:46:58.809Z,2.10
2022-08-28T01:49:29.310Z,2.27
2022-08-28T01:51:58.985Z,2.20
2022-08-28T01:54:27.055Z,2.07
2022-08-28T01:56:55.147Z,2.10
2022-08-28T01:59:24.187Z,2.00
2022-08-28T02:01:51.738Z,2.07
2022-08-28T02:04:19.289Z,2.10
2022-08-28T02:06:50.743Z,2.00
2022-08-28T02:09:19.022Z,2.20
2022-08-28T02:11:46.961Z,1.80
2022-08-28T02:14:15.667Z,1.97
2022-08-28T02:16:44.495Z,2.20
2022-08-28T02:19:12.976Z,1.80
2022-08-28T02:21:41.508Z,1.70
2022-08-28T02:24:09.255Z,2.00
2022-08-28T02:26:37.083Z,1.80
2022-08-28T02:29:05.153Z,2.20
2022-08-28T02:31:32.742Z,2.10
2022-08-28T02:34:01.591Z,2.00
2022-08-28T02:36:29.087Z,1.87
2022-08-28T02:38:57.922Z,1.87
2022-08-28T02:41:25.638Z,2.20
2022-08-28T02:43:53.443Z,1.70
2022-08-28T02:46:20.995Z,2.00
2022-08-28T02:48:48.961Z,2.00
2022-08-28T02:51:19.936Z,2.30
2022-08-28T02:53:47.561Z,2.20
2022-08-28T02:56:15.097Z,1.87
2022-08-28T02:58:42.566Z,2.00
2022-08-28T03:01:13.310Z,1.87
2022-08-28T03:03:41.779Z,1.80
2022-08-28T03:06:12.036Z,1.97
2022-08-28T03:08:42.431Z,2.00
2022-08-28T03:11:10.582Z,1.80
2022-08-28T03:13:38.071Z,2.10
2022-08-28T03:16:05.651Z,2.00
2022-08-28T03:18:34.109Z,2.40
2022-08-28T03:21:02.341Z,1.90
2022-08-28T03:23:30.110Z,2.00
2022-08-28T03:26:01.339Z,1.90
2022-08-28T03:28:31.248Z,2.13
2022-08-28T03:30:59.414Z,2.17
2022-08-28T03:33:27.678Z,2.10
2022-08-28T03:35:56.149Z,1.97
2022-08-28T03:38:25.327Z,1.80
2022-08-28T03:40:54.271Z,2.20
2022-08-28T03:43:25.461Z,1.80
2022-08-28T03:45:55.154Z,2.10
2022-08-28T03:48:24.258Z,2.20
2022-08-28T03:50:53.205Z,1.83
2022-08-28T03:53:21.476Z,2.00
2022-08-28T03:55:49.431Z,1.80
2022-08-28T03:58:19.075Z,1.80
2022-08-28T04:00:49.801Z,1.93
2022-08-28T04:03:17.889Z,1.97
2022-08-28T04:05:46.823Z,1.83
2022-08-28T04:08:16.653Z,1.93
2022-08-28T04:10:44.943Z,2.10
2022-08-28T04:13:13.622Z,2.00
2022-08-28T04:15:41.354Z,1.93
2022-08-28T04:18:11.134Z,1.83
2022-08-28T04:20:39.487Z,1.70
2022-08-28T04:23:09.768Z,1.67
2022-08-28T04:25:40.339Z,2.07
2022-08-28T04:28:07.865Z,1.87
2022-08-28T04:30:35.322Z,2.20
2022-08-28T04:33:02.779Z,1.63
2022-08-28T04:35:31.631Z,2.00
2022-08-28T04:37:59.212Z,1.87
2022-08-28T04:40:26.842Z,2.10
2022-08-28T04:42:54.372Z,1.80
2022-08-28T04:45:21.875Z,1.63
2022-08-28T04:47:49.369Z,1.90
2022-08-28T04:50:16.887Z,1.90
2022-08-28T04:52:46.067Z,1.73
2022-08-28T04:55:14.371Z,2.00
2022-08-28T04:57:45.706Z,1.87
2022-08-28T05:00:13.815Z,1.67
2022-08-28T05:02:41.557Z,1.87
2022-08-28T05:05:09.839Z,1.80
2022-08-28T05:07:37.302Z,1.67
2022-08-28T05:10:07.389Z,1.90
2022-08-28T05:12:36.203Z,1.80
2022-08-28T05:15:04.470Z,1.63
2022-08-28T05:17:32.205Z,1.90
2022-08-28T05:19:59.799Z,1.70
2022-08-28T05:22:28.770Z,1.90
2022-08-28T05:24:56.267Z,1.97
2022-08-28T05:27:25.599Z,1.50
2022-08-28T05:29:55.492Z,1.90
2022-08-28T05:32:25.961Z,1.60
2022-08-28T05:34:54.825Z,1.60
2022-08-28T05:37:23.010Z,2.20
2022-08-28T05:39:50.502Z,1.77
2022-08-28T05:42:18.078Z,1.67
2022-08-28T05:44:46.922Z,1.60
2022-08-28T05:47:16.527Z,1.70
2022-08-28T05:49:49.049Z,1.70
2022-08-28T05:52:19.748Z,1.63
2022-08-28T05:54:47.218Z,1.63
2022-08-28T05:57:14.708Z,1.50
2022-08-28T05:59:42.202Z,1.70
2022-08-28T06:02:11.042Z,1.60
2022-08-28T06:04:40.421Z,1.90
2022-08-28T06:07:08.035Z,1.73
2022-08-28T06:09:35.567Z,1.70
2022-08-28T06:12:03.207Z,1.50
2022-08-28T06:14:32.552Z,1.50
2022-08-28T06:17:00.583Z,1.80
2022-08-28T06:19:31.686Z,1.77
2022-08-28T06:22:00.826Z,1.63
2022-08-28T06:24:29.523Z,1.70
2022-08-28T06:26:59.306Z,1.40
2022-08-28T06:29:28.029Z,1.73
2022-08-28T06:31:57.216Z,1.63
2022-08-28T06:34:25.370Z,1.53
2022-08-28T06:36:54.621Z,1.50
2022-08-28T06:39:23.307Z,1.70
2022-08-28T06:41:50.933Z,2.07
2022-08-28T06:44:21.247Z,1.60
2022-08-28T06:46:51.570Z,1.70
2022-08-28T06:49:19.315Z,1.67
2022-08-28T06:51:46.883Z,1.80
2022-08-28T06:54:22.386Z,1.80
2022-08-28T06:56:50.924Z,1.60
2022-08-28T06:59:18.518Z,1.60
2022-08-28T07:01:46.086Z,1.80
2022-08-28T07:04:14.690Z,1.93
2022-08-28T07:06:46.789Z,1.50
2022-08-28T07:09:16.081Z,1.70
2022-08-28T07:11:46.811Z,1.70
2022-08-28T07:14:14.425Z,1.67
2022-08-28T07:16:41.959Z,1.67
2022-08-28T07:19:11.898Z,2.00
2022-08-28T07:21:41.583Z,1.60
2022-08-28T07:24:10.391Z,1.60
2022-08-28T07:26:41.349Z,1.70
2022-08-28T07:29:10.846Z,1.80
2022-08-28T07:31:41.034Z,1.73
2022-08-28T07:34:09.634Z,1.98
2022-08-28T07:36:37.334Z,1.83
2022-08-28T07:39:05.977Z,1.85
2022-08-28T07:41:35.299Z,1.92
2022-08-28T07:44:22.067Z,1.65
2022-08-28T07:46:49.543Z,1.55
2022-08-28T07:49:17.473Z,1.70
2022-08-28T07:51:46.602Z,1.70
2022-08-28T07:54:17.627Z,1.70
2022-08-28T07:56:45.945Z,1.83
2022-08-28T07:59:19.113Z,2.03
2022-08-28T08:01:48.897Z,1.80
2022-08-28T08:04:17.279Z,2.00
2022-08-28T08:06:46.677Z,2.35
2022-08-28T08:09:16.113Z,2.53
2022-08-28T08:11:43.943Z,2.42
2022-08-28T08:14:12.284Z,1.83
2022-08-28T08:16:43.685Z,1.90
2022-08-28T08:19:14.715Z,1.73
2022-08-28T08:21:43.470Z,1.80
2022-08-28T08:24:13.026Z,1.77
2022-08-28T08:26:57.381Z,1.92
2022-08-28T08:29:31.115Z,1.67
2022-08-28T08:32:04.814Z,1.50
2022-08-28T08:34:32.874Z,1.80
2022-08-28T08:37:00.338Z,1.90
2022-08-28T08:39:27.998Z,1.80
2022-08-28T08:41:59.049Z,1.90
2022-08-28T08:44:33.571Z,2.00
2022-08-28T08:47:14.223Z,2.20
2022-08-28T08:49:48.333Z,1.80
2022-08-28T08:52:31.072Z,2.00
2022-08-28T08:55:07.059Z,1.90
2022-08-28T08:57:36.929Z,1.90
2022-08-28T09:00:12.290Z,1.90
2022-08-28T09:02:50.678Z,1.90
2022-08-28T09:05:21.624Z,1.98
2022-08-28T09:07:56.643Z,2.00
2022-08-28T09:10:26.597Z,2.20
2022-08-28T09:12:58.197Z,1.88
2022-08-28T09:15:30.923Z,1.90
2022-08-28T09:18:10.685Z,2.03
2022-08-28T09:20:38.261Z,2.28
2022-08-28T09:23:13.136Z,2.00
2022-08-28T09:25:51.736Z,1.80
2022-08-28T09:28:22.834Z,1.90
2022-08-28T09:31:04.924Z,2.00
2022-08-28T09:33:41.821Z,1.98
2022-08-28T09:36:26.513Z,1.80
2022-08-28T09:39:09.682Z,1.60
2022-08-28T09:41:59.080Z,1.85
2022-08-28T09:44:26.656Z,1.80
2022-08-28T09:46:54.242Z,1.75
2022-08-28T09:49:29.329Z,1.63
2022-08-28T09:52:01.460Z,1.83
2022-08-28T09:54:35.189Z,1.88
2022-08-28T09:57:04.383Z,1.92
2022-08-28T09:59:32.601Z,1.70
2022-08-28T10:02:14.206Z,1.90
2022-08-28T10:04:59.732Z,2.05
2022-08-28T10:07:37.282Z,2.00
2022-08-28T10:10:18.030Z,2.08
2022-08-28T10:12:59.407Z,2.08
2022-08-28T10:15:31.686Z,1.88
2022-08-28T10:18:21.270Z,1.65
2022-08-28T10:20:58.382Z,1.70
2022-08-28T10:23:37.174Z,1.85
2022-08-28T10:26:25.146Z,2.03
2022-08-28T10:29:03.239Z,1.85
2022-08-28T10:31:37.969Z,1.77
2022-08-28T10:34:24.147Z,1.50
2022-08-28T10:37:05.284Z,1.67
2022-08-28T10:39:47.408Z,1.58
2022-08-28T10:42:17.423Z,1.60
2022-08-28T10:44:52.340Z,1.80
2022-08-28T10:47:22.031Z,1.80
2022-08-28T10:49:54.280Z,1.92
2022-08-28T10:52:31.536Z,2.30
2022-08-28T10:55:05.089Z,1.92
2022-08-28T10:57:39.522Z,1.85
2022-08-28T11:00:11.844Z,2.00
2022-08-28T11:02:41.884Z,1.70
2022-08-28T11:05:10.638Z,1.80
2022-08-28T11:07:45.527Z,1.80
2022-08-28T11:10:20.951Z,2.10
2022-08-28T11:12:51.287Z,2.13
2022-08-28T11:15:40.759Z,1.88
2022-08-28T11:18:39.249Z,1.80
2022-08-28T11:21:14.142Z,2.20
2022-08-28T11:23:49.175Z,2.83
2022-08-28T11:26:30.046Z,2.33
2022-08-28T11:28:57.645Z,2.30
2022-08-28T11:31:38.840Z,2.38
2022-08-28T11:34:06.610Z,1.95
2022-08-28T11:37:07.086Z,1.90
2022-08-28T11:39:35.924Z,2.10
2022-08-28T11:42:38.326Z,2.50
2022-08-28T11:45:06.988Z,2.30
2022-08-28T11:47:44.274Z,2.50
2022-08-28T11:50:29.822Z,2.25
2022-08-28T11:53:24.315Z,2.70
2022-08-28T11:56:11.739Z,2.30
2022-08-28T11:58:47.975Z,2.38
2022-08-28T12:01:29.150Z,2.35
2022-08-28T12:04:04.909Z,2.30
2022-08-28T12:07:15.842Z,2.30
2022-08-28T12:09:46.209Z,2.50
2022-08-28T12:12:55.215Z,2.40
2022-08-28T12:15:40.462Z,2.30
2022-08-28T12:18:16.063Z,2.20
2022-08-28T12:21:00.240Z,2.35
2022-08-28T12:23:40.094Z,2.40
2022-08-28T12:26:16.306Z,2.33
2022-08-28T12:28:50.827Z,2.58
2022-08-28T12:31:59.607Z,2.67
2022-08-28T12:34:39.308Z,2.63
2022-08-28T12:37:23.006Z,2.38
2022-08-28T12:39:51.403Z,2.60
2022-08-28T12:42:23.185Z,2.65
2022-08-28T12:44:51.703Z,2.88
2022-08-28T12:47:23.532Z,2.63
2022-08-28T12:49:51.058Z,2.88
2022-08-28T12:52:21.511Z,2.58
2022-08-28T12:54:50.920Z,2.75
2022-08-28T12:57:23.208Z,2.53
2022-08-28T12:59:52.817Z,2.72
2022-08-28T13:02:26.857Z,2.80
2022-08-28T13:04:58.595Z,2.55
2022-08-28T13:07:29.455Z,2.88
2022-08-28T13:10:00.488Z,2.60
2022-08-28T13:12:56.273Z,2.60
2022-08-28T13:15:53.053Z,2.80
2022-08-28T13:18:46.286Z,2.70
2022-08-28T13:21:33.466Z,2.90
2022-08-28T13:24:17.704Z,2.70
2022-08-28T13:26:45.286Z,2.95
2022-08-28T13:29:20.630Z,2.72
2022-08-28T13:31:59.266Z,2.60
2022-08-28T13:34:29.080Z,2.70
2022-08-28T13:36:59.679Z,2.58
2022-08-28T13:39:29.829Z,2.60
2022-08-28T13:42:05.725Z,2.35
2022-08-28T13:44:37.717Z,2.35
2022-08-28T13:47:07.570Z,2.30
2022-08-28T13:49:35.683Z,2.85
2022-08-28T13:52:06.385Z,2.58
2022-08-28T13:54:34.440Z,2.55
2022-08-28T13:57:03.585Z,2.53
2022-08-28T13:59:31.930Z,2.58
2022-08-28T14:02:20.916Z,2.30
2022-08-28T14:04:48.432Z,2.42
2022-08-28T14:07:16.785Z,2.53
2022-08-28T14:09:44.468Z,2.63
2022-08-28T14:12:12.244Z,2.53
2022-08-28T14:14:40.502Z,2.47
2022-08-28T14:17:10.371Z,2.45
2022-08-28T14:19:38.457Z,2.13
2022-08-28T14:22:06.308Z,2.30
2022-08-28T14:24:33.804Z,2.10
2022-08-28T14:27:02.498Z,2.30
2022-08-28T14:29:31.484Z,2.30
2022-08-28T14:31:59.737Z,2.35
2022-08-28T14:34:28.849Z,1.80
2022-08-28T14:36:56.426Z,2.13
2022-08-28T14:39:26.094Z,1.90
2022-08-28T14:41:54.654Z,2.00
2022-08-28T14:44:24.027Z,2.00
2022-08-28T14:46:57.086Z,1.73
2022-08-28T14:49:26.155Z,1.90
2022-08-28T14:51:55.013Z,1.90
2022-08-28T14:54:25.667Z,1.92
2022-08-28T14:56:54.356Z,1.90
2022-08-28T14:59:24.742Z,2.08
2022-08-28T15:01:53.495Z,1.98
2022-08-28T15:04:23.520Z,2.00
2022-08-28T15:06:52.152Z,1.58
2022-08-28T15:09:21.146Z,1.80
2022-08-28T15:11:48.615Z,1.80
2022-08-28T15:14:16.130Z,1.70
2022-08-28T15:16:46.233Z,1.77
2022-08-28T15:19:17.674Z,1.65
2022-08-28T15:21:47.271Z,1.52
2022-08-28T15:24:16.755Z,1.80
2022-08-28T15:26:46.737Z,1.60
2022-08-28T15:29:14.387Z,1.42
2022-08-28T15:31:44.411Z,1.50
2022-08-28T15:34:15.927Z,1.48
2022-08-28T15:36:45.322Z,1.55
2022-08-28T15:39:40.025Z,1.48
2022-08-28T15:42:10.226Z,1.55
2022-08-28T15:44:38.110Z,1.60
2022-08-28T15:47:07.023Z,1.55
2022-08-28T15:49:46.627Z,1.65
2022-08-28T15:52:18.102Z,1.35
2022-08-28T15:54:45.632Z,1.60
2022-08-28T15:57:14.543Z,1.42
2022-08-28T15:59:49.786Z,1.77
2022-08-28T16:02:19.627Z,1.63
2022-08-28T16:04:47.266Z,1.50
2022-08-28T16:07:14.922Z,1.60
2022-08-28T16:09:42.424Z,1.70
2022-08-28T16:12:09.976Z,1.40
2022-08-28T16:14:38.870Z,1.40
2022-08-28T16:17:10.814Z,1.60
2022-08-28T16:19:38.908Z,1.48
2022-08-28T16:22:06.555Z,1.50
2022-08-28T16:24:34.675Z,1.77
2022-08-28T16:27:02.202Z,1.80
2022-08-28T16:29:29.773Z,1.42
2022-08-28T16:31:59.044Z,1.40
2022-08-28T16:34:31.227Z,1.40
2022-08-28T16:36:59.101Z,1.30
2022-08-28T16:39:26.903Z,1.60
2022-08-28T16:41:54.389Z,1.48
2022-08-28T16:44:24.309Z,1.40
2022-08-28T16:46:52.100Z,1.33
2022-08-28T16:49:21.386Z,1.55
2022-08-28T16:51:48.909Z,1.20
2022-08-28T16:54:18.071Z,1.40
2022-08-28T16:56:45.734Z,1.55
2022-08-28T16:59:16.285Z,1.70
2022-08-28T17:01:43.930Z,1.65
2022-08-28T17:04:12.425Z,1.48
2022-08-28T17:06:44.370Z,1.52
2022-08-28T17:09:12.059Z,1.40
2022-08-28T17:11:39.714Z,1.40
2022-08-28T17:14:08.966Z,1.60
2022-08-28T17:16:36.481Z,1.38
2022-08-28T17:19:04.104Z,1.45
2022-08-28T17:21:49.346Z,1.50
2022-08-28T17:24:18.347Z,1.45
2022-08-28T17:26:46.027Z,1.40
2022-08-28T17:29:13.779Z,1.40
2022-08-28T17:31:41.445Z,1.20
2022-08-28T17:34:08.990Z,1.75
2022-08-28T17:36:37.660Z,1.15
2022-08-28T17:39:08.340Z,1.30
2022-08-28T17:41:37.269Z,1.45
2022-08-28T17:44:05.141Z,1.38
2022-08-28T17:46:37.430Z,1.20
2022-08-28T17:49:06.493Z,1.30
2022-08-28T17:51:43.588Z,1.60
2022-08-28T17:54:12.992Z,1.55
2022-08-28T17:56:41.885Z,1.45
2022-08-28T17:59:10.003Z,1.40
2022-08-28T18:01:38.377Z,1.40
2022-08-28T18:04:06.266Z,1.20
2022-08-28T18:06:34.360Z,1.38
2022-08-28T18:09:02.282Z,1.50
2022-08-28T18:11:29.881Z,1.35
2022-08-28T18:13:59.613Z,1.23
2022-08-28T18:16:31.123Z,1.17
2022-08-28T18:18:59.345Z,1.30
2022-08-28T18:21:26.854Z,1.23
2022-08-28T18:23:54.445Z,1.48
2022-08-28T18:26:22.120Z,1.25
2022-08-28T18:28:49.885Z,1.20
2022-08-28T18:31:19.008Z,1.40
2022-08-28T18:33:46.581Z,1.38
2022-08-28T18:36:15.089Z,1.38
2022-08-28T18:38:43.263Z,1.40
2022-08-28T18:41:12.142Z,2.00
2022-08-28T18:43:39.785Z,1.48
2022-08-28T18:46:09.468Z,1.45
2022-08-28T18:48:38.483Z,1.40
2022-08-28T18:51:07.817Z,1.55
2022-08-28T18:53:36.087Z,1.50
2022-08-28T18:56:05.334Z,1.38
2022-08-28T18:58:33.355Z,1.40
2022-08-28T19:01:02.069Z,1.45
2022-08-28T19:03:29.668Z,1.50
2022-08-28T19:05:58.551Z,1.52
2022-08-28T19:08:26.995Z,1.38
2022-08-28T19:10:55.385Z,1.48
2022-08-28T19:13:23.165Z,1.20
2022-08-28T19:15:52.466Z,1.30
2022-08-28T19:18:20.851Z,1.20
2022-08-28T19:20:48.918Z,1.33
2022-08-28T19:23:18.090Z,1.40
2022-08-28T19:25:45.874Z,1.30
2022-08-28T19:28:13.790Z,1.40
2022-08-28T19:30:42.014Z,1.33
2022-08-28T19:33:12.549Z,1.40
2022-08-28T19:35:40.059Z,1.42
2022-08-28T19:38:07.626Z,1.23
2022-08-28T19:40:38.693Z,1.45
2022-08-28T19:43:06.379Z,1.30
2022-08-28T19:45:37.167Z,1.38
2022-08-28T19:48:04.925Z,1.37
2022-08-28T19:50:32.426Z,1.35
2022-08-28T19:52:59.983Z,1.20
2022-08-28T19:55:28.757Z,1.40
2022-08-28T19:57:57.758Z,1.47
2022-08-28T20:00:29.271Z,1.33
2022-08-28T20:02:57.603Z,1.47
2022-08-28T20:05:25.631Z,1.30
2022-08-28T20:07:53.221Z,1.50
2022-08-28T20:10:21.280Z,1.40
2022-08-28T20:12:49.017Z,1.50
2022-08-28T20:15:20.243Z,1.30
2022-08-28T20:17:49.811Z,1.30
2022-08-28T20:20:18.631Z,1.40
2022-08-28T20:22:46.202Z,1.40
2022-08-28T20:25:15.410Z,1.30
2022-08-28T20:27:42.915Z,1.27
2022-08-28T20:30:11.674Z,1.40
2022-08-28T20:32:41.152Z,1.50
2022-08-28T20:35:11.761Z,1.50
2022-08-28T20:37:45.182Z,1.50
2022-08-28T20:40:14.227Z,1.40
2022-08-28T20:42:41.916Z,1.40
2022-08-28T20:45:10.146Z,1.20
2022-08-28T20:47:37.908Z,1.53
2022-08-28T20:50:07.963Z,1.40
2022-08-28T20:52:35.833Z,1.40
2022-08-28T20:55:03.918Z,1.90
2022-08-28T20:57:31.447Z,1.50
2022-08-28T21:00:02.257Z,1.60
2022-08-28T21:02:33.575Z,1.47
2022-08-28T21:05:01.434Z,1.53
2022-08-28T21:07:30.340Z,1.60
2022-08-28T21:10:06.927Z,1.40
2022-08-28T21:12:35.457Z,1.40
2022-08-28T21:15:03.378Z,1.40
2022-08-28T21:17:31.087Z,1.20
2022-08-28T21:20:00.950Z,1.33
2022-08-28T21:22:31.267Z,1.43
2022-08-28T21:24:58.840Z,1.20
2022-08-28T21:27:26.716Z,1.30
2022-08-28T21:29:56.355Z,1.67
2022-08-28T21:32:23.925Z,1.40
2022-08-28T21:34:52.596Z,1.20
2022-08-28T21:37:20.127Z,1.70
2022-08-28T21:39:48.978Z,1.40
2022-08-28T21:42:16.535Z,1.33
2022-08-28T21:44:48.336Z,1.30
2022-08-28T21:47:19.756Z,1.20
2022-08-28T21:49:49.267Z,1.40
2022-08-28T21:52:16.879Z,1.50
2022-08-28T21:54:44.414Z,1.57
2022-08-28T21:57:13.290Z,1.40
2022-08-28T21:59:41.270Z,1.40
2022-08-28T22:02:08.830Z,1.40
2022-08-28T22:04:36.869Z,1.30
2022-08-28T22:07:04.425Z,1.37
2022-08-28T22:09:31.923Z,1.03
2022-08-28T22:11:59.393Z,1.30
2022-08-28T22:14:28.457Z,1.23
2022-08-28T22:16:55.976Z,1.50
2022-08-28T22:19:23.503Z,1.50
2022-08-28T22:22:08.799Z,1.50
2022-08-28T22:24:36.498Z,1.43
2022-08-28T22:27:04.700Z,1.20
2022-08-28T22:29:36.463Z,1.40
2022-08-28T22:32:04.615Z,1.70
2022-08-28T22:34:32.282Z,1.40
2022-08-28T22:36:59.759Z,1.13
2022-08-28T22:39:27.295Z,1.50
2022-08-28T22:41:54.741Z,1.47
2022-08-28T22:44:22.230Z,1.37
2022-08-28T22:46:51.074Z,1.33
2022-08-28T22:49:18.556Z,1.40
2022-08-28T22:51:46.065Z,1.33
2022-08-28T22:54:13.610Z,1.40
2022-08-28T22:56:41.962Z,1.50
2022-08-28T22:59:09.618Z,1.40
2022-08-28T23:01:37.674Z,1.50
2022-08-28T23:04:06.598Z,1.20
2022-08-28T23:06:34.218Z,1.30
2022-08-28T23:09:01.701Z,1.40
2022-08-28T23:11:29.197Z,1.50
2022-08-28T23:13:56.694Z,1.30
2022-08-28T23:16:24.577Z,1.63
2022-08-28T23:19:08.802Z,1.40
2022-08-28T23:21:40.864Z,1.60
2022-08-28T23:24:12.129Z,1.40
2022-08-28T23:26:39.647Z,1.30
2022-08-28T23:29:07.123Z,1.40
2022-08-28T23:31:34.919Z,1.23
2022-08-28T23:34:02.793Z,1.43
2022-08-28T23:36:32.760Z,1.20
2022-08-28T23:39:04.795Z,1.30
2022-08-28T23:41:32.462Z,1.40
2022-08-28T23:44:00.049Z,1.60
2022-08-28T23:46:27.583Z,1.30
2022-08-28T23:48:55.085Z,1.30
2022-08-28T23:51:22.658Z,1.43
2022-08-28T23:53:52.755Z,1.40
2022-08-28T23:56:21.678Z,1.30
2022-08-28T23:58:51.105Z,1.50
